Sanctuary — WDF6190 — position and weather

sailwx.info

Track history (hours):
 
Tides and Currents Weather Stations Pressure Air Temp Water Temp Dewpoint Dewpoint Depression Visibility Wind Speed Wind Dir Waves Ship Positions

Sanctuary

Owner: Dutton, Stephen G, LEWISTON, CA. More information available from US FCC via Universal Licensing System and Coast Guard Vessel Documentation Center.

Last reported at 2017-Oct-14 15:57 UTC. Time now 2017-Oct-20 12:55 UTC.
Position N 48°31' W 123°17'.

Length 15 m.

Type: Pleasure craft. MMSI: 367470740.

Date/timePositionNaut miles runAvg speedWind from/ knotsBaromVisibWave heightAir tempDewpointWater temp
2017-Oct-14 15:57N 48°31' W 123°17'4 8.6
2017-Oct-14 15:30N 48°28' W 123°15'4 8.1
2017-Oct-14 15:00N 48°24' W 123°19'3 6.2
2017-Oct-14 14:28N 48°25' W 123°23'1 1.5
2017-Oct-14 13:58N 48°25' W 123°22'0 0.0
2017-Oct-13 23:17N 48°25' W 123°22'0 0.0
2017-Oct-13 22:53N 48°25' W 123°22'0 0.0
2017-Oct-12 23:51N 48°25' W 123°22'0 0.0
2017-Oct-12 23:30N 48°25' W 123°22'0 0.0
2017-Oct-12 22:57N 48°25' W 123°22'0 0.0
2017-Oct-12 22:30N 48°25' W 123°22'0 0.0
2017-Oct-12 22:00N 48°25' W 123°22'0 1.0
2017-Oct-12 21:30N 48°25' W 123°23'2 3.4
2017-Oct-12 21:00N 48°24' W 123°21'33 1.2
2017-Oct-11 18:39N 48°30' W 122°33'  
2017-Oct-05 17:04N 48°50' W 123°35'19 0.9
2017-Oct-04 20:35N 49°09' W 123°41'0 4.5
2017-Oct-04 20:29N 49°09' W 123°41'4 8.2
2017-Oct-04 19:57N 49°14' W 123°41'4 9.2
2017-Oct-04 19:30N 49°18' W 123°40'4 8.7
2017-Oct-04 19:00N 49°22' W 123°40'4 8.3
2017-Oct-04 18:29N 49°24' W 123°46'4 9.1
2017-Oct-04 18:00N 49°26' W 123°51'5 9.1
2017-Oct-04 17:30N 49°30' W 123°57'4 9.1
2017-Oct-04 17:00N 49°33' W 124°01'4 8.5
2017-Oct-04 16:30N 49°37' W 124°04'2 3.3
2017-Oct-04 15:59N 49°38' W 124°02'  
Track history (hours):
 
Tides and Currents Weather Stations Pressure Air Temp Water Temp Dewpoint Dewpoint Depression Visibility Wind Speed Wind Dir Waves Ship Positions

Sanctuary

Owner: Dutton, Stephen G, LEWISTON, CA. More information available from US FCC via Universal Licensing System and Coast Guard Vessel Documentation Center.

Last reported at 2017-Oct-14 15:57 UTC. Time now 2017-Oct-20 12:55 UTC.
Position N 48°31' W 123°17'.

Length 15 m.

Type: Pleasure craft. MMSI: 367470740.

Date/timePositionNaut miles runAvg speedWind from/ knotsBaromVisibWave heightAir tempDewpointWater temp
2017-Oct-14 15:57N 48°31' W 123°17'4 8.6
2017-Oct-14 15:30N 48°28' W 123°15'4 8.1
2017-Oct-14 15:00N 48°24' W 123°19'3 6.2
2017-Oct-14 14:28N 48°25' W 123°23'1 1.5
2017-Oct-14 13:58N 48°25' W 123°22'0 0.0
2017-Oct-13 23:17N 48°25' W 123°22'0 0.0
2017-Oct-13 22:53N 48°25' W 123°22'0 0.0
2017-Oct-12 23:51N 48°25' W 123°22'0 0.0
2017-Oct-12 23:30N 48°25' W 123°22'0 0.0
2017-Oct-12 22:57N 48°25' W 123°22'0 0.0
2017-Oct-12 22:30N 48°25' W 123°22'0 0.0
2017-Oct-12 22:00N 48°25' W 123°22'0 1.0
2017-Oct-12 21:30N 48°25' W 123°23'2 3.4
2017-Oct-12 21:00N 48°24' W 123°21'33 1.2
2017-Oct-11 18:39N 48°30' W 122°33'  
2017-Oct-05 17:04N 48°50' W 123°35'19 0.9
2017-Oct-04 20:35N 49°09' W 123°41'0 4.5
2017-Oct-04 20:29N 49°09' W 123°41'4 8.2
2017-Oct-04 19:57N 49°14' W 123°41'4 9.2
2017-Oct-04 19:30N 49°18' W 123°40'4 8.7
2017-Oct-04 19:00N 49°22' W 123°40'4 8.3
2017-Oct-04 18:29N 49°24' W 123°46'4 9.1
2017-Oct-04 18:00N 49°26' W 123°51'5 9.1
2017-Oct-04 17:30N 49°30' W 123°57'4 9.1
2017-Oct-04 17:00N 49°33' W 124°01'4 8.5
2017-Oct-04 16:30N 49°37' W 124°04'2 3.3
2017-Oct-04 15:59N 49°38' W 124°02'  

Dump ship's entire track history